Ruston, LA

10:59 AM CST on December 15, 2017 (GMT -0600)
Ruston Regional

Weather History for KRSN - February, 2013

Change the Weather History Date:

Sunday, February 24, 2013

  Actual Average Record
Temperature  
Mean Temperature 48 °F -  
Max Temperature 65 °F 63 °F 84 °F (1930)
Min Temperature 32 °F 38 °F 20 °F (1968)
Degree Days  
Heating Degree Days 16    
Moisture  
Dew Point 36 °F    
Average Humidity 64    
Maximum Humidity 100    
Minimum Humidity 29    
Precipitation  
Precipitation 0.00 in - - ()
Sea Level Pressure  
Sea Level Pressure 29.96 in    
Wind  
Wind Speed 3 mph (East)    
Max Wind Speed 10 mph    
Max Gust Speed -    
Visibility 10 miles    
Events      
Averages and records for this station are not official NWS values.
T = Trace of Precipitation, MM = Missing Value Source: NWS Daily Summary

Daily Weather History Graph

Daily Weather History Graph

Search for Another Location

Airport or City:

Trip Planner

Search our weather history database for the weather conditions in past years. The results will help you decide how hot, cold, wet, or windy it might be!

Date:

Astronomy

Feb. 24, 2013 Rise Set
Actual Time 6:43 AM CST 6:04 PM CST
Civil Twilight 6:18 AM CST 6:28 PM CST
Nautical Twilight 5:50 AM CST 6:57 PM CST
Astronomical Twilight 5:21 AM CST 7:25 PM CST
Moon 5:15 PM CST (2/24) 5:39 AM CST (2/24)
Length of Visible Light 12h 10m
Length of Day
11h 20m
Waxing Gibbous, 99% of the Moon is Illuminated
Feb 24
Waxing Gibbous
Feb 25
Full
Mar 4
Last Quarter
Mar 11
New
Mar 19
First Quarter

Hourly Weather History & Observations

Time (CST) Temp. Windchill Dew Point Humidity Pressure Visibility Wind Dir Wind Speed Gust Speed Precip Events Conditions
12:15 AM 36.5 °F - 36.5 °F 100% 30.03 in 10.0 mi Calm Calm - N/A   Clear
12:35 AM 35.8 °F - 35.8 °F 100% 30.04 in 10.0 mi Calm Calm - N/A   Clear
12:55 AM 37.9 °F - 37.9 °F 100% 30.03 in 10.0 mi Calm Calm - N/A   Clear
1:15 AM 35.6 °F - 35.6 °F 100% 30.04 in 10.0 mi Calm Calm - N/A   Clear
1:35 AM 36.9 °F - 36.9 °F 100% 30.03 in 10.0 mi Calm Calm - N/A   Clear
1:55 AM 36.9 °F - 36.9 °F 100% 30.03 in 10.0 mi Calm Calm - N/A   Clear
2:15 AM 37.8 °F - 37.8 °F 100% 30.02 in 10.0 mi Calm Calm - N/A   Clear
2:35 AM 36.1 °F - 36.1 °F 100% 30.03 in 10.0 mi Calm Calm - N/A   Clear
2:55 AM 36.1 °F - 36.1 °F 100% 30.02 in 10.0 mi Calm Calm - N/A   Clear
3:15 AM 34.3 °F - 34.3 °F 100% 30.02 in 10.0 mi Calm Calm - N/A   Clear
3:35 AM 34.9 °F - 34.9 °F 100% 30.02 in 7.0 mi Calm Calm - N/A   Clear
3:55 AM 33.6 °F - 33.6 °F 100% 30.02 in 7.0 mi Calm Calm - N/A   Clear
4:15 AM 33.6 °F - 33.6 °F 100% 30.03 in 7.0 mi Calm Calm - N/A   Clear
4:35 AM 33.3 °F - 33.3 °F 100% 30.02 in 5.0 mi Calm Calm - N/A   Clear
4:55 AM 33.3 °F - 33.3 °F 100% 30.03 in 5.0 mi Calm Calm - N/A   Clear
5:15 AM 33.3 °F - 33.3 °F 100% 30.03 in 7.0 mi Calm Calm - N/A   Clear
5:35 AM 34.0 °F - 34.0 °F 100% 30.03 in 10.0 mi Calm Calm - N/A   Clear
6:15 AM 32.0 °F - 32.0 °F 100% 30.05 in 5.0 mi Calm Calm - N/A   Clear
6:55 AM 32.7 °F - 32.7 °F 100% 30.06 in 7.0 mi Calm Calm - N/A   Clear
7:15 AM 34.0 °F - 34.0 °F 100% 30.06 in 7.0 mi Calm Calm - N/A   Clear
7:35 AM 38.5 °F - 38.5 °F 100% 30.05 in 10.0 mi Calm Calm - N/A   Clear
7:55 AM 40.1 °F 36.1 °F 37.8 °F 91% 30.07 in 10.0 mi East 5.8 mph - N/A   Clear
8:15 AM 41.2 °F 36.6 °F 36.9 °F 85% 30.07 in 10.0 mi East 6.9 mph - N/A   Clear
8:35 AM 43.7 °F 39.7 °F 36.7 °F 76% 30.08 in 10.0 mi East 6.9 mph - N/A   Clear
8:55 AM 45.3 °F 41.1 °F 35.2 °F 68% 30.08 in 10.0 mi East 8.1 mph - N/A   Clear
9:15 AM 47.5 °F - 34.7 °F 61% 30.07 in 10.0 mi East 10.4 mph - N/A   Clear
9:35 AM 49.8 °F - 35.2 °F 57% 30.07 in 10.0 mi East 9.2 mph - N/A   Clear
9:55 AM 52.0 °F - 33.8 °F 50% 30.07 in 10.0 mi East 9.2 mph - N/A   Clear
10:15 AM 54.0 °F - 33.8 °F 46% 30.06 in 10.0 mi East 8.1 mph - N/A   Clear
10:35 AM 54.7 °F - 32.7 °F 43% 30.05 in 10.0 mi East 8.1 mph - N/A   Clear
10:55 AM 56.3 °F - 33.1 °F 41% 30.05 in 10.0 mi East 8.1 mph - N/A   Clear
11:15 AM 57.2 °F - 32.5 °F 39% 30.04 in 10.0 mi East 5.8 mph - N/A   Clear
11:35 AM 59.0 °F - 33.3 °F 38% 30.03 in 10.0 mi SSE 8.1 mph - N/A   Clear
11:55 AM 60.1 °F - 34.0 °F 38% 30.01 in 10.0 mi East 4.6 mph - N/A   Clear
12:15 PM 60.6 °F - 34.2 °F 37% 30.01 in 10.0 mi ENE 9.2 mph - N/A   Clear
12:35 PM 61.7 °F - 33.8 °F 35% 30.00 in 10.0 mi East 9.2 mph - N/A   Clear
12:55 PM 62.6 °F - 34.0 °F 34% 29.99 in 10.0 mi Calm Calm - N/A   Clear
1:15 PM 63.0 °F - 34.3 °F 34% 29.97 in 10.0 mi East 4.6 mph - N/A   Clear
1:35 PM 63.1 °F - 33.3 °F 33% 29.97 in 10.0 mi Calm Calm - N/A   Clear
1:55 PM 64.4 °F - 32.4 °F 30% 29.96 in 10.0 mi ENE 6.9 mph - N/A   Clear
2:15 PM 64.8 °F - 32.0 °F 29% 29.94 in 10.0 mi SSE 5.8 mph - N/A   Clear
2:35 PM 64.4 °F - 32.7 °F 31% 29.94 in 10.0 mi East 6.9 mph - N/A   Clear
2:55 PM 64.2 °F - 32.2 °F 30% 29.92 in 10.0 mi SE 5.8 mph - N/A   Clear
3:15 PM 65.3 °F - 32.4 °F 29% 29.92 in 10.0 mi East 6.9 mph - N/A   Clear
3:35 PM 64.6 °F - 32.0 °F 30% 29.91 in 7.0 mi East 8.1 mph - N/A   Clear
3:55 PM 65.1 °F - 32.2 °F 29% 29.91 in 10.0 mi East 5.8 mph - N/A   Clear
4:15 PM 63.5 °F - 32.4 °F 31% 29.90 in 10.0 mi SE 8.1 mph - N/A   Clear
4:35 PM 63.7 °F - 34.2 °F 33% 29.90 in 10.0 mi East 9.2 mph - N/A   Clear
4:55 PM 63.5 °F - 34.9 °F 34% 29.90 in 10.0 mi East 9.2 mph - N/A   Clear
5:15 PM 62.4 °F - 35.6 °F 37% 29.89 in 10.0 mi East 4.6 mph - N/A   Clear
5:35 PM 61.0 °F - 36.5 °F 40% 29.88 in 10.0 mi East 4.6 mph - N/A   Clear
5:55 PM 59.5 °F - 36.9 °F 43% 29.88 in 10.0 mi ENE 8.1 mph - N/A   Clear
6:15 PM 58.1 °F - 37.2 °F 46% 29.88 in 10.0 mi East 3.5 mph - N/A   Clear
6:35 PM 56.3 °F - 38.1 °F 51% 29.88 in 10.0 mi ENE 4.6 mph - N/A   Clear
6:55 PM 55.8 °F - 37.8 °F 51% 29.88 in 10.0 mi Calm Calm - N/A   Clear
7:15 PM 54.7 °F - 38.3 °F 54% 29.88 in 10.0 mi NE 3.5 mph - N/A   Clear
7:35 PM 54.0 °F - 38.7 °F 56% 29.88 in 10.0 mi Calm Calm - N/A   Clear
7:55 PM 53.2 °F - 39.0 °F 59% 29.87 in 10.0 mi NE 3.5 mph - N/A   Clear
8:15 PM 52.3 °F - 39.2 °F 61% 29.86 in 10.0 mi NE 4.6 mph - N/A   Clear
8:35 PM 51.8 °F - 39.0 °F 62% 29.86 in 10.0 mi NE 5.8 mph - N/A   Clear
8:55 PM 51.6 °F - 39.2 °F 63% 29.86 in 10.0 mi NE 4.6 mph - N/A   Clear
9:15 PM 50.9 °F - 39.4 °F 65% 29.86 in 10.0 mi Calm Calm - N/A   Clear
9:35 PM 51.1 °F - 39.4 °F 64% 29.86 in 10.0 mi East 3.5 mph - N/A   Scattered Clouds
9:55 PM 51.1 °F - 39.4 °F 64% 29.85 in 10.0 mi ENE 3.5 mph - N/A   Scattered Clouds
10:15 PM 51.3 °F - 39.4 °F 64% 29.85 in 10.0 mi NE 3.5 mph - N/A   Mostly Cloudy
10:35 PM 51.1 °F - 39.4 °F 64% 29.83 in 10.0 mi NE 5.8 mph - N/A   Overcast
10:55 PM 51.4 °F - 39.2 °F 63% 29.81 in 10.0 mi NE 5.8 mph - N/A   Overcast
11:15 PM 51.4 °F - 39.2 °F 63% 29.80 in 10.0 mi Calm Calm - N/A   Overcast
11:35 PM 51.8 °F - 39.2 °F 62% 29.80 in 10.0 mi NE 4.6 mph - N/A   Overcast
11:55 PM 52.2 °F - 39.6 °F 62% 29.79 in 10.0 mi ENE 3.5 mph - N/A   Overcast